sensor_id;sensor_type;location;lat;lon;timestamp;pressure;altitude;pressure_sealevel;temperature;humidity
19676;BME280;39539;52.202;9.876;2024-03-22T00:02:16;101312.19;;;8.20;100.00
19676;BME280;39539;52.202;9.876;2024-03-22T00:04:41;101305.88;;;8.21;100.00
19676;BME280;39539;52.202;9.876;2024-03-22T00:07:06;101307.00;;;8.26;100.00
19676;BME280;39539;52.202;9.876;2024-03-22T00:09:32;101311.97;;;8.29;100.00
19676;BME280;39539;52.202;9.876;2024-03-22T00:11:57;101316.06;;;8.32;100.00
19676;BME280;39539;52.202;9.876;2024-03-22T00:14:23;101313.41;;;8.32;100.00
19676;BME280;39539;52.202;9.876;2024-03-22T00:16:48;101315.72;;;8.35;100.00
19676;BME280;39539;52.202;9.876;2024-03-22T00:19:13;101307.44;;;8.38;100.00
19676;BME280;39539;52.202;9.876;2024-03-22T00:21:39;101315.22;;;8.40;100.00
19676;BME280;39539;52.202;9.876;2024-03-22T00:24:04;101308.94;;;8.41;100.00
19676;BME280;39539;52.202;9.876;2024-03-22T00:26:29;101302.28;;;8.45;100.00
19676;BME280;39539;52.202;9.876;2024-03-22T00:28:55;101299.78;;;8.43;100.00
19676;BME280;39539;52.202;9.876;2024-03-22T00:31:23;101290.50;;;8.47;100.00
19676;BME280;39539;52.202;9.876;2024-03-22T00:33:48;101302.03;;;8.54;100.00
19676;BME280;39539;52.202;9.876;2024-03-22T00:36:14;101308.28;;;8.62;100.00
19676;BME280;39539;52.202;9.876;2024-03-22T00:38:39;101314.03;;;8.65;100.00
19676;BME280;39539;52.202;9.876;2024-03-22T00:41:04;101302.97;;;8.62;100.00
19676;BME280;39539;52.202;9.876;2024-03-22T00:43:30;101303.31;;;8.59;100.00
19676;BME280;39539;52.202;9.876;2024-03-22T00:45:55;101295.03;;;8.62;100.00
19676;BME280;39539;52.202;9.876;2024-03-22T00:48:21;101278.00;;;8.56;100.00
19676;BME280;39539;52.202;9.876;2024-03-22T00:50:46;101296.13;;;8.67;100.00
19676;BME280;39539;52.202;9.876;2024-03-22T00:53:11;101290.63;;;8.69;100.00
19676;BME280;39539;52.202;9.876;2024-03-22T00:55:37;101281.69;;;8.70;100.00
19676;BME280;39539;52.202;9.876;2024-03-22T00:58:03;101270.09;;;8.71;100.00
19676;BME280;39539;52.202;9.876;2024-03-22T01:00:28;101260.13;;;8.73;100.00
19676;BME280;39539;52.202;9.876;2024-03-22T01:02:54;101259.94;;;8.74;100.00
19676;BME280;39539;52.202;9.876;2024-03-22T01:05:19;101266.56;;;8.79;100.00
19676;BME280;39539;52.202;9.876;2024-03-22T01:07:44;101264.34;;;8.82;100.00
19676;BME280;39539;52.202;9.876;2024-03-22T01:10:10;101270.31;;;8.84;100.00
19676;BME280;39539;52.202;9.876;2024-03-22T01:12:36;101263.38;;;8.83;100.00
19676;BME280;39539;52.202;9.876;2024-03-22T01:15:03;101253.22;;;8.87;100.00
19676;BME280;39539;52.202;9.876;2024-03-22T01:17:28;101253.03;;;8.88;100.00
19676;BME280;39539;52.202;9.876;2024-03-22T01:19:53;101241.97;;;8.85;100.00
19676;BME280;39539;52.202;9.876;2024-03-22T01:22:19;101229.91;;;8.82;100.00
19676;BME280;39539;52.202;9.876;2024-03-22T01:24:45;101250.66;;;8.93;100.00
19676;BME280;39539;52.202;9.876;2024-03-22T01:27:10;101234.47;;;8.88;100.00
19676;BME280;39539;52.202;9.876;2024-03-22T01:29:36;101247.63;;;8.96;100.00
19676;BME280;39539;52.202;9.876;2024-03-22T01:32:02;101244.63;;;8.99;100.00
19676;BME280;39539;52.202;9.876;2024-03-22T01:34:27;101242.25;;;8.90;100.00
19676;BME280;39539;52.202;9.876;2024-03-22T01:36:52;101257.88;;;8.99;100.00
19676;BME280;39539;52.202;9.876;2024-03-22T01:39:21;101249.56;;;9.03;100.00
19676;BME280;39539;52.202;9.876;2024-03-22T01:41:56;101252.13;;;9.11;100.00
19676;BME280;39539;52.202;9.876;2024-03-22T01:44:27;101240.06;;;9.08;100.00
19676;BME280;39539;52.202;9.876;2024-03-22T01:46:53;101236.22;;;9.11;100.00
19676;BME280;39539;52.202;9.876;2024-03-22T01:49:18;101237.41;;;9.08;100.00
19676;BME280;39539;52.202;9.876;2024-03-22T01:51:44;101232.56;;;9.12;100.00
19676;BME280;39539;52.202;9.876;2024-03-22T01:54:09;101229.28;;;9.10;100.00
19676;BME280;39539;52.202;9.876;2024-03-22T01:56:39;101218.28;;;9.13;100.00
19676;BME280;39539;52.202;9.876;2024-03-22T01:59:05;101211.34;;;9.12;100.00
19676;BME280;39539;52.202;9.876;2024-03-22T02:01:31;101206.31;;;9.17;100.00
19676;BME280;39539;52.202;9.876;2024-03-22T02:03:56;101190.50;;;9.09;100.00
19676;BME280;39539;52.202;9.876;2024-03-22T02:06:22;101189.94;;;9.13;100.00
19676;BME280;39539;52.202;9.876;2024-03-22T02:08:47;101194.06;;;9.16;100.00
19676;BME280;39539;52.202;9.876;2024-03-22T02:11:12;101175.16;;;9.04;100.00
19676;BME280;39539;52.202;9.876;2024-03-22T02:13:38;101189.19;;;9.19;100.00
19676;BME280;39539;52.202;9.876;2024-03-22T02:16:04;101188.66;;;9.24;100.00
19676;BME280;39539;52.202;9.876;2024-03-22T02:18:30;101173.28;;;9.19;100.00
19676;BME280;39539;52.202;9.876;2024-03-22T02:20:57;101170.25;;;9.22;100.00
19676;BME280;39539;52.202;9.876;2024-03-22T02:23:31;101152.16;;;9.11;100.00
19676;BME280;39539;52.202;9.876;2024-03-22T02:25:57;101152.00;;;9.13;100.00
19676;BME280;39539;52.202;9.876;2024-03-22T02:28:22;101149.50;;;9.11;100.00
19676;BME280;39539;52.202;9.876;2024-03-22T02:30:48;101157.31;;;9.13;100.00
19676;BME280;39539;52.202;9.876;2024-03-22T02:33:13;101155.28;;;9.15;100.00
19676;BME280;39539;52.202;9.876;2024-03-22T02:35:39;101150.59;;;9.17;100.00
19676;BME280;39539;52.202;9.876;2024-03-22T02:38:04;101156.28;;;9.14;100.00
19676;BME280;39539;52.202;9.876;2024-03-22T02:40:29;101136.19;;;9.05;100.00
19676;BME280;39539;52.202;9.876;2024-03-22T02:42:55;101132.78;;;9.11;100.00
19676;BME280;39539;52.202;9.876;2024-03-22T02:45:20;101124.56;;;9.06;100.00
19676;BME280;39539;52.202;9.876;2024-03-22T02:47:46;101118.19;;;8.85;100.00
19676;BME280;39539;52.202;9.876;2024-03-22T02:50:11;101095.34;;;8.84;100.00
19676;BME280;39539;52.202;9.876;2024-03-22T02:52:37;101100.75;;;8.76;100.00
19676;BME280;39539;52.202;9.876;2024-03-22T02:55:04;101104.03;;;8.93;100.00
19676;BME280;39539;52.202;9.876;2024-03-22T02:57:29;101097.91;;;8.92;100.00
19676;BME280;39539;52.202;9.876;2024-03-22T02:59:56;101095.81;;;8.88;100.00
19676;BME280;39539;52.202;9.876;2024-03-22T03:02:22;101105.59;;;8.87;100.00
19676;BME280;39539;52.202;9.876;2024-03-22T03:04:47;101103.94;;;8.86;100.00
19676;BME280;39539;52.202;9.876;2024-03-22T03:07:12;101106.84;;;8.91;100.00
19676;BME280;39539;52.202;9.876;2024-03-22T03:09:38;101098.28;;;8.89;100.00
19676;BME280;39539;52.202;9.876;2024-03-22T03:12:03;101110.16;;;8.93;100.00
19676;BME280;39539;52.202;9.876;2024-03-22T03:14:29;101119.25;;;9.06;100.00
19676;BME280;39539;52.202;9.876;2024-03-22T03:16:54;101109.03;;;9.03;100.00
19676;BME280;39539;52.202;9.876;2024-03-22T03:19:19;101113.94;;;9.06;100.00
19676;BME280;39539;52.202;9.876;2024-03-22T03:21:45;101103.88;;;9.16;100.00
19676;BME280;39539;52.202;9.876;2024-03-22T03:24:10;101117.41;;;9.21;100.00
19676;BME280;39539;52.202;9.876;2024-03-22T03:26:35;101115.31;;;9.16;100.00
19676;BME280;39539;52.202;9.876;2024-03-22T03:29:00;101099.59;;;9.15;100.00
19676;BME280;39539;52.202;9.876;2024-03-22T03:31:26;101088.09;;;9.08;100.00
19676;BME280;39539;52.202;9.876;2024-03-22T03:33:51;101086.06;;;9.10;100.00
19676;BME280;39539;52.202;9.876;2024-03-22T03:36:16;101088.91;;;9.08;100.00
19676;BME280;39539;52.202;9.876;2024-03-22T03:38:42;101070.28;;;9.02;100.00
19676;BME280;39539;52.202;9.876;2024-03-22T03:41:07;101070.81;;;8.97;100.00
19676;BME280;39539;52.202;9.876;2024-03-22T03:43:32;101062.88;;;8.97;100.00
19676;BME280;39539;52.202;9.876;2024-03-22T03:45:58;101051.81;;;8.93;100.00
19676;BME280;39539;52.202;9.876;2024-03-22T03:48:23;101037.78;;;8.78;100.00
19676;BME280;39539;52.202;9.876;2024-03-22T03:50:52;101021.34;;;8.68;100.00
19676;BME280;39539;52.202;9.876;2024-03-22T03:53:18;101026.28;;;8.71;100.00
19676;BME280;39539;52.202;9.876;2024-03-22T03:55:43;101030.75;;;8.70;100.00
19676;BME280;39539;52.202;9.876;2024-03-22T03:58:09;101035.63;;;8.67;100.00
19676;BME280;39539;52.202;9.876;2024-03-22T04:00:34;101032.31;;;8.65;100.00
19676;BME280;39539;52.202;9.876;2024-03-22T04:03:00;101033.72;;;8.61;100.00
19676;BME280;39539;52.202;9.876;2024-03-22T04:05:25;101021.66;;;8.58;100.00
19676;BME280;39539;52.202;9.876;2024-03-22T04:07:51;101025.75;;;8.61;100.00
19676;BME280;39539;52.202;9.876;2024-03-22T04:10:16;101011.41;;;8.55;100.00
19676;BME280;39539;52.202;9.876;2024-03-22T04:12:41;101009.75;;;8.54;100.00
19676;BME280;39539;52.202;9.876;2024-03-22T04:15:07;101004.91;;;8.58;100.00
19676;BME280;39539;52.202;9.876;2024-03-22T04:17:33;100995.69;;;8.53;100.00
19676;BME280;39539;52.202;9.876;2024-03-22T04:19:58;101013.50;;;8.60;100.00
19676;BME280;39539;52.202;9.876;2024-03-22T04:22:24;101015.50;;;8.58;100.00
19676;BME280;39539;52.202;9.876;2024-03-22T04:24:49;101012.59;;;8.52;100.00
19676;BME280;39539;52.202;9.876;2024-03-22T04:27:14;101013.94;;;8.63;100.00
19676;BME280;39539;52.202;9.876;2024-03-22T04:29:40;101008.19;;;8.60;100.00
19676;BME280;39539;52.202;9.876;2024-03-22T04:32:05;101001.53;;;8.64;100.00
19676;BME280;39539;52.202;9.876;2024-03-22T04:34:30;100985.00;;;8.62;100.00
19676;BME280;39539;52.202;9.876;2024-03-22T04:36:56;100984.63;;;8.65;100.00
19676;BME280;39539;52.202;9.876;2024-03-22T04:39:22;100988.41;;;8.77;100.00
19676;BME280;39539;52.202;9.876;2024-03-22T04:41:47;100969.97;;;8.69;100.00
19676;BME280;39539;52.202;9.876;2024-03-22T04:44:13;100972.88;;;8.74;100.00
19676;BME280;39539;52.202;9.876;2024-03-22T04:46:38;100978.09;;;8.82;100.00
19676;BME280;39539;52.202;9.876;2024-03-22T04:49:03;100978.34;;;8.87;100.00
19676;BME280;39539;52.202;9.876;2024-03-22T04:51:29;100978.34;;;8.87;100.00
19676;BME280;39539;52.202;9.876;2024-03-22T04:53:54;100976.56;;;8.94;100.00
19676;BME280;39539;52.202;9.876;2024-03-22T04:56:19;100970.44;;;8.94;100.00
19676;BME280;39539;52.202;9.876;2024-03-22T04:58:45;100955.13;;;8.89;100.00
19676;BME280;39539;52.202;9.876;2024-03-22T05:01:10;100963.91;;;8.90;100.00
19676;BME280;39539;52.202;9.876;2024-03-22T05:03:37;100955.50;;;8.86;100.00
19676;BME280;39539;52.202;9.876;2024-03-22T05:06:03;100962.69;;;8.92;100.00
19676;BME280;39539;52.202;9.876;2024-03-22T05:08:29;100935.22;;;8.79;100.00
19676;BME280;39539;52.202;9.876;2024-03-22T05:10:54;100951.06;;;8.93;100.00
19676;BME280;39539;52.202;9.876;2024-03-22T05:13:22;100954.38;;;8.95;100.00
19676;BME280;39539;52.202;9.876;2024-03-22T05:15:47;100932.09;;;8.90;100.00
19676;BME280;39539;52.202;9.876;2024-03-22T05:18:13;100938.19;;;8.90;100.00
19676;BME280;39539;52.202;9.876;2024-03-22T05:20:38;100935.97;;;8.94;100.00
19676;BME280;39539;52.202;9.876;2024-03-22T05:23:04;100942.63;;;9.05;100.00
19676;BME280;39539;52.202;9.876;2024-03-22T05:25:29;100949.63;;;9.12;100.00
19676;BME280;39539;52.202;9.876;2024-03-22T05:27:54;100934.03;;;9.03;100.00
19676;BME280;39539;52.202;9.876;2024-03-22T05:30:20;100938.78;;;9.07;100.00
19676;BME280;39539;52.202;9.876;2024-03-22T05:32:45;100943.25;;;9.07;100.00
19676;BME280;39539;52.202;9.876;2024-03-22T05:35:11;100935.03;;;9.02;100.00
19676;BME280;39539;52.202;9.876;2024-03-22T05:37:36;100944.19;;;8.99;100.00
19676;BME280;39539;52.202;9.876;2024-03-22T05:40:02;100942.06;;;9.09;100.00
19676;BME280;39539;52.202;9.876;2024-03-22T05:42:29;100936.28;;;9.06;100.00
19676;BME280;39539;52.202;9.876;2024-03-22T05:44:55;100939.19;;;9.11;100.00
19676;BME280;39539;52.202;9.876;2024-03-22T05:47:21;100938.00;;;9.13;100.00
19676;BME280;39539;52.202;9.876;2024-03-22T05:49:47;100932.69;;;9.13;100.00
19676;BME280;39539;52.202;9.876;2024-03-22T05:52:12;100925.78;;;9.12;100.00
19676;BME280;39539;52.202;9.876;2024-03-22T05:54:38;100931.94;;;9.19;100.00
19676;BME280;39539;52.202;9.876;2024-03-22T05:57:03;100918.75;;;9.26;100.00
19676;BME280;39539;52.202;9.876;2024-03-22T05:59:30;100914.69;;;9.30;100.00
19676;BME280;39539;52.202;9.876;2024-03-22T06:01:55;100908.00;;;9.34;100.00
19676;BME280;39539;52.202;9.876;2024-03-22T06:04:21;100899.16;;;9.27;100.00
19676;BME280;39539;52.202;9.876;2024-03-22T06:06:46;100914.16;;;9.41;100.00
19676;BME280;39539;52.202;9.876;2024-03-22T06:09:11;100916.03;;;9.48;100.00
19676;BME280;39539;52.202;9.876;2024-03-22T06:11:38;100898.88;;;9.43;100.00
19676;BME280;39539;52.202;9.876;2024-03-22T06:14:05;100908.06;;;9.48;100.00
19676;BME280;39539;52.202;9.876;2024-03-22T06:16:31;100904.63;;;9.54;100.00
19676;BME280;39539;52.202;9.876;2024-03-22T06:18:56;100908.81;;;9.63;100.00
19676;BME280;39539;52.202;9.876;2024-03-22T06:21:22;100904.31;;;9.63;100.00
19676;BME280;39539;52.202;9.876;2024-03-22T06:23:49;100913.50;;;9.67;100.00
19676;BME280;39539;52.202;9.876;2024-03-22T06:26:15;100910.47;;;9.71;100.00
19676;BME280;39539;52.202;9.876;2024-03-22T06:28:41;100908.84;;;9.70;100.00
19676;BME280;39539;52.202;9.876;2024-03-22T06:31:06;100901.50;;;9.72;100.00
19676;BME280;39539;52.202;9.876;2024-03-22T06:33:31;100891.69;;;9.72;100.00
19676;BME280;39539;52.202;9.876;2024-03-22T06:35:57;100906.28;;;9.89;100.00
19676;BME280;39539;52.202;9.876;2024-03-22T06:38:24;100886.69;;;9.90;100.00
19676;BME280;39539;52.202;9.876;2024-03-22T06:40:49;100895.31;;;9.99;100.00
19676;BME280;39539;52.202;9.876;2024-03-22T06:43:14;100893.31;;;10.08;100.00
19676;BME280;39539;52.202;9.876;2024-03-22T06:45:40;100869.44;;;10.15;100.00
19676;BME280;39539;52.202;9.876;2024-03-22T06:48:05;100886.63;;;10.25;100.00
19676;BME280;39539;52.202;9.876;2024-03-22T06:50:30;100869.94;;;10.31;100.00
19676;BME280;39539;52.202;9.876;2024-03-22T06:52:56;100864.22;;;10.34;100.00
19676;BME280;39539;52.202;9.876;2024-03-22T06:55:21;100865.84;;;10.36;100.00
19676;BME280;39539;52.202;9.876;2024-03-22T06:57:47;100870.38;;;10.42;100.00
19676;BME280;39539;52.202;9.876;2024-03-22T07:00:13;100870.97;;;10.44;100.00
19676;BME280;39539;52.202;9.876;2024-03-22T07:02:39;100871.19;;;10.42;100.00
19676;BME280;39539;52.202;9.876;2024-03-22T07:05:06;100870.38;;;10.42;100.00
19676;BME280;39539;52.202;9.876;2024-03-22T07:07:32;100858.91;;;10.41;100.00
19676;BME280;39539;52.202;9.876;2024-03-22T07:09:58;100874.25;;;10.39;100.00
19676;BME280;39539;52.202;9.876;2024-03-22T07:12:25;100877.31;;;10.43;100.00
19676;BME280;39539;52.202;9.876;2024-03-22T07:14:50;100873.03;;;10.42;100.00
19676;BME280;39539;52.202;9.876;2024-03-22T07:17:16;100871.41;;;10.54;100.00
19676;BME280;39539;52.202;9.876;2024-03-22T07:19:41;100867.09;;;10.53;100.00
19676;BME280;39539;52.202;9.876;2024-03-22T07:22:08;100869.16;;;10.64;100.00
19676;BME280;39539;52.202;9.876;2024-03-22T07:24:34;100873.88;;;10.75;100.00
19676;BME280;39539;52.202;9.876;2024-03-22T07:26:59;100858.97;;;10.81;100.00
19676;BME280;39539;52.202;9.876;2024-03-22T07:29:25;100860.00;;;11.00;100.00
19676;BME280;39539;52.202;9.876;2024-03-22T07:31:50;100854.88;;;11.12;100.00
19676;BME280;39539;52.202;9.876;2024-03-22T07:34:15;100828.88;;;11.20;100.00
19676;BME280;39539;52.202;9.876;2024-03-22T07:36:41;100840.06;;;11.49;100.00
19676;BME280;39539;52.202;9.876;2024-03-22T07:39:08;100833.06;;;11.68;100.00
19676;BME280;39539;52.202;9.876;2024-03-22T07:41:35;100829.38;;;11.76;100.00
19676;BME280;39539;52.202;9.876;2024-03-22T07:44:01;100819.91;;;11.93;100.00
19676;BME280;39539;52.202;9.876;2024-03-22T07:46:27;100817.84;;;11.95;100.00
19676;BME280;39539;52.202;9.876;2024-03-22T07:48:53;100807.94;;;12.09;100.00
19676;BME280;39539;52.202;9.876;2024-03-22T07:51:19;100809.72;;;12.22;100.00
19676;BME280;39539;52.202;9.876;2024-03-22T07:53:45;100814.41;;;12.20;100.00
19676;BME280;39539;52.202;9.876;2024-03-22T07:56:11;100815.66;;;12.24;100.00
19676;BME280;39539;52.202;9.876;2024-03-22T07:58:38;100811.91;;;12.31;100.00
19676;BME280;39539;52.202;9.876;2024-03-22T08:01:04;100794.50;;;12.29;100.00
19676;BME280;39539;52.202;9.876;2024-03-22T08:03:29;100795.69;;;12.33;100.00
19676;BME280;39539;52.202;9.876;2024-03-22T08:05:55;100788.38;;;12.22;100.00
19676;BME280;39539;52.202;9.876;2024-03-22T08:08:21;100790.84;;;12.23;100.00
19676;BME280;39539;52.202;9.876;2024-03-22T08:10:46;100781.59;;;12.26;100.00
19676;BME280;39539;52.202;9.876;2024-03-22T08:13:12;100785.66;;;12.28;100.00
19676;BME280;39539;52.202;9.876;2024-03-22T08:15:38;100773.81;;;12.24;100.00
19676;BME280;39539;52.202;9.876;2024-03-22T08:18:03;100782.72;;;12.43;100.00
19676;BME280;39539;52.202;9.876;2024-03-22T08:20:29;100784.28;;;12.51;100.00
19676;BME280;39539;52.202;9.876;2024-03-22T08:22:55;100782.88;;;12.48;100.00
19676;BME280;39539;52.202;9.876;2024-03-22T08:25:21;100784.41;;;12.38;100.00
19676;BME280;39539;52.202;9.876;2024-03-22T08:27:47;100780.19;;;12.23;100.00
19676;BME280;39539;52.202;9.876;2024-03-22T08:30:13;100759.38;;;12.07;100.00
19676;BME280;39539;52.202;9.876;2024-03-22T08:32:38;100766.56;;;12.06;100.00
19676;BME280;39539;52.202;9.876;2024-03-22T08:35:05;100758.81;;;11.98;100.00
19676;BME280;39539;52.202;9.876;2024-03-22T08:37:31;100768.00;;;12.02;100.00
19676;BME280;39539;52.202;9.876;2024-03-22T08:39:57;100764.22;;;12.17;100.00
19676;BME280;39539;52.202;9.876;2024-03-22T08:42:22;100766.63;;;12.25;100.00
19676;BME280;39539;52.202;9.876;2024-03-22T08:44:48;100760.06;;;12.27;100.00
19676;BME280;39539;52.202;9.876;2024-03-22T08:47:14;100758.63;;;12.25;100.00
19676;BME280;39539;52.202;9.876;2024-03-22T08:49:39;100745.13;;;12.20;100.00
19676;BME280;39539;52.202;9.876;2024-03-22T08:52:06;100739.38;;;12.23;100.00
19676;BME280;39539;52.202;9.876;2024-03-22T08:54:32;100742.66;;;12.25;100.00
19676;BME280;39539;52.202;9.876;2024-03-22T08:56:57;100729.13;;;12.26;100.00
19676;BME280;39539;52.202;9.876;2024-03-22T08:59:23;100743.00;;;12.35;100.00
19676;BME280;39539;52.202;9.876;2024-03-22T09:01:49;100733.16;;;12.35;100.00
19676;BME280;39539;52.202;9.876;2024-03-22T09:04:15;100727.75;;;12.42;100.00
19676;BME280;39539;52.202;9.876;2024-03-22T09:06:42;100715.84;;;12.45;100.00
19676;BME280;39539;52.202;9.876;2024-03-22T09:09:07;100724.09;;;12.62;100.00
19676;BME280;39539;52.202;9.876;2024-03-22T09:11:34;100705.50;;;12.55;100.00
19676;BME280;39539;52.202;9.876;2024-03-22T09:13:59;100713.88;;;12.58;100.00
19676;BME280;39539;52.202;9.876;2024-03-22T09:16:25;100711.22;;;12.58;100.00
19676;BME280;39539;52.202;9.876;2024-03-22T09:18:51;100706.84;;;12.64;100.00
19676;BME280;39539;52.202;9.876;2024-03-22T09:21:16;100697.75;;;12.72;100.00
19676;BME280;39539;52.202;9.876;2024-03-22T09:23:41;100708.00;;;12.93;100.00
19676;BME280;39539;52.202;9.876;2024-03-22T09:26:07;100702.38;;;13.01;100.00
19676;BME280;39539;52.202;9.876;2024-03-22T09:28:32;100698.88;;;13.01;100.00
19676;BME280;39539;52.202;9.876;2024-03-22T09:31:05;100687.03;;;12.97;100.00
19676;BME280;39539;52.202;9.876;2024-03-22T09:33:33;100693.91;;;13.04;100.00
19676;BME280;39539;52.202;9.876;2024-03-22T09:35:58;100673.03;;;12.83;100.00
19676;BME280;39539;52.202;9.876;2024-03-22T09:38:24;100686.13;;;12.85;100.00
19676;BME280;39539;52.202;9.876;2024-03-22T09:40:50;100690.88;;;12.83;100.00
19676;BME280;39539;52.202;9.876;2024-03-22T09:43:23;100679.09;;;12.90;100.00
19676;BME280;39539;52.202;9.876;2024-03-22T09:45:49;100677.69;;;12.88;100.00
19676;BME280;39539;52.202;9.876;2024-03-22T09:48:18;100685.47;;;12.89;100.00
19676;BME280;39539;52.202;9.876;2024-03-22T09:50:45;100674.97;;;12.94;100.00
19676;BME280;39539;52.202;9.876;2024-03-22T09:53:11;100671.09;;;12.90;100.00
19676;BME280;39539;52.202;9.876;2024-03-22T09:55:37;100662.06;;;12.91;99.77
19676;BME280;39539;52.202;9.876;2024-03-22T09:58:05;100661.38;;;12.77;99.24
19676;BME280;39539;52.202;9.876;2024-03-22T10:00:30;100645.03;;;12.74;100.00
19676;BME280;39539;52.202;9.876;2024-03-22T10:02:56;100654.72;;;12.87;100.00
19676;BME280;39539;52.202;9.876;2024-03-22T10:05:23;100637.16;;;12.79;99.56
19676;BME280;39539;52.202;9.876;2024-03-22T10:07:49;100642.78;;;12.89;99.22
19676;BME280;39539;52.202;9.876;2024-03-22T10:10:15;100653.75;;;12.99;99.50
19676;BME280;39539;52.202;9.876;2024-03-22T10:12:40;100641.47;;;12.80;97.69
19676;BME280;39539;52.202;9.876;2024-03-22T10:15:08;100653.00;;;12.92;97.16
19676;BME280;39539;52.202;9.876;2024-03-22T10:17:34;100646.94;;;12.85;97.44
19676;BME280;39539;52.202;9.876;2024-03-22T10:20:00;100657.19;;;12.88;97.44
19676;BME280;39539;52.202;9.876;2024-03-22T10:22:25;100636.41;;;12.72;96.15
19676;BME280;39539;52.202;9.876;2024-03-22T10:24:51;100653.91;;;12.86;98.37
19676;BME280;39539;52.202;9.876;2024-03-22T10:27:17;100637.16;;;12.79;94.43
19676;BME280;39539;52.202;9.876;2024-03-22T10:29:44;100621.00;;;12.92;93.32
19676;BME280;39539;52.202;9.876;2024-03-22T10:32:09;100643.81;;;13.07;94.89
19676;BME280;39539;52.202;9.876;2024-03-22T10:34:35;100643.97;;;13.12;93.58
19676;BME280;39539;52.202;9.876;2024-03-22T10:37:01;100632.97;;;13.20;92.35
19676;BME280;39539;52.202;9.876;2024-03-22T10:39:27;100638.69;;;13.23;89.06
19676;BME280;39539;52.202;9.876;2024-03-22T10:41:53;100626.91;;;13.13;89.48
19676;BME280;39539;52.202;9.876;2024-03-22T10:44:19;100622.63;;;13.12;90.44
19676;BME280;39539;52.202;9.876;2024-03-22T10:46:46;100630.06;;;13.21;88.79
19676;BME280;39539;52.202;9.876;2024-03-22T10:49:19;100627.72;;;13.13;87.53
19676;BME280;39539;52.202;9.876;2024-03-22T10:51:52;100625.13;;;13.07;88.54
19676;BME280;39539;52.202;9.876;2024-03-22T10:54:22;100629.88;;;13.04;90.61
19676;BME280;39539;52.202;9.876;2024-03-22T10:56:49;100613.81;;;12.93;94.59
19676;BME280;39539;52.202;9.876;2024-03-22T10:59:24;100638.47;;;13.07;99.92
19676;BME280;39539;52.202;9.876;2024-03-22T11:01:50;100633.28;;;12.93;100.00
19676;BME280;39539;52.202;9.876;2024-03-22T11:04:17;100638.94;;;12.85;100.00
19676;BME280;39539;52.202;9.876;2024-03-22T11:06:49;100630.03;;;12.73;100.00
19676;BME280;39539;52.202;9.876;2024-03-22T11:09:24;100624.09;;;12.71;100.00
19676;BME280;39539;52.202;9.876;2024-03-22T11:11:55;100618.25;;;12.80;100.00
19676;BME280;39539;52.202;9.876;2024-03-22T11:14:25;100621.91;;;12.86;100.00
19676;BME280;39539;52.202;9.876;2024-03-22T11:16:50;100615.22;;;12.95;99.97
19676;BME280;39539;52.202;9.876;2024-03-22T11:19:16;100605.28;;;12.84;99.65
19676;BME280;39539;52.202;9.876;2024-03-22T11:21:42;100614.41;;;12.95;100.00
19676;BME280;39539;52.202;9.876;2024-03-22T11:24:07;100617.56;;;13.03;100.00
19676;BME280;39539;52.202;9.876;2024-03-22T11:26:33;100601.28;;;12.93;100.00
19676;BME280;39539;52.202;9.876;2024-03-22T11:28:59;100605.19;;;12.91;98.43
19676;BME280;39539;52.202;9.876;2024-03-22T11:31:26;100590.28;;;13.01;98.81
19676;BME280;39539;52.202;9.876;2024-03-22T11:33:56;100603.34;;;13.28;98.89
19676;BME280;39539;52.202;9.876;2024-03-22T11:36:22;100592.91;;;13.38;98.74
19676;BME280;39539;52.202;9.876;2024-03-22T11:38:48;100584.19;;;13.31;95.97
19676;BME280;39539;52.202;9.876;2024-03-22T11:41:24;100593.28;;;13.42;94.14
19676;BME280;39539;52.202;9.876;2024-03-22T11:43:51;100577.34;;;13.35;95.53
19676;BME280;39539;52.202;9.876;2024-03-22T11:46:17;100582.09;;;13.33;94.26
19676;BME280;39539;52.202;9.876;2024-03-22T11:48:43;100573.19;;;13.39;94.10
19676;BME280;39539;52.202;9.876;2024-03-22T11:51:09;100571.94;;;13.42;94.35
19676;BME280;39539;52.202;9.876;2024-03-22T11:53:35;100575.09;;;13.51;95.94
19676;BME280;39539;52.202;9.876;2024-03-22T11:56:02;100571.47;;;13.45;94.52
19676;BME280;39539;52.202;9.876;2024-03-22T11:58:29;100560.31;;;13.36;94.25
19676;BME280;39539;52.202;9.876;2024-03-22T12:00:56;100567.47;;;13.36;92.17
19676;BME280;39539;52.202;9.876;2024-03-22T12:03:22;100564.59;;;13.37;92.15
19676;BME280;39539;52.202;9.876;2024-03-22T12:05:47;100554.84;;;13.31;92.65
19676;BME280;39539;52.202;9.876;2024-03-22T12:08:16;100549.78;;;13.23;90.88
19676;BME280;39539;52.202;9.876;2024-03-22T12:10:45;100557.38;;;13.26;93.61
19676;BME280;39539;52.202;9.876;2024-03-22T12:13:10;100550.16;;;13.27;93.51
19676;BME280;39539;52.202;9.876;2024-03-22T12:15:35;100529.22;;;13.12;94.01
19676;BME280;39539;52.202;9.876;2024-03-22T12:18:02;100530.66;;;12.96;93.74
19676;BME280;39539;52.202;9.876;2024-03-22T12:20:27;100536.69;;;12.91;92.29
19676;BME280;39539;52.202;9.876;2024-03-22T12:22:53;100528.53;;;12.86;95.45
19676;BME280;39539;52.202;9.876;2024-03-22T12:25:18;100521.63;;;12.78;95.30
19676;BME280;39539;52.202;9.876;2024-03-22T12:27:46;100532.28;;;12.97;95.25
19676;BME280;39539;52.202;9.876;2024-03-22T12:30:12;100514.88;;;12.94;96.48
19676;BME280;39539;52.202;9.876;2024-03-22T12:32:37;100523.09;;;12.93;95.62
19676;BME280;39539;52.202;9.876;2024-03-22T12:35:03;100535.41;;;12.94;91.15
19676;BME280;39539;52.202;9.876;2024-03-22T12:37:29;100526.00;;;12.91;94.82
19676;BME280;39539;52.202;9.876;2024-03-22T12:39:54;100511.31;;;12.82;93.64
19676;BME280;39539;52.202;9.876;2024-03-22T12:42:20;100504.28;;;12.88;95.67